createdAt,value
2023-05-11T00:01:55.212Z,18.50
2023-05-11T00:06:58.072Z,18.46
2023-05-11T00:12:00.035Z,18.42
2023-05-11T00:17:02.217Z,18.38
2023-05-11T00:22:04.678Z,18.31
2023-05-11T00:27:10.071Z,18.28
2023-05-11T00:32:12.044Z,18.23
2023-05-11T00:37:14.148Z,18.18
2023-05-11T00:42:17.187Z,18.16
2023-05-11T00:47:20.341Z,18.16
2023-05-11T00:52:27.024Z,18.17
2023-05-11T00:57:31.724Z,18.17
2023-05-11T01:05:15.794Z,18.19
2023-05-11T01:10:38.259Z,18.19
2023-05-11T01:15:50.100Z,18.17
2023-05-11T01:21:02.526Z,18.19
2023-05-11T01:26:33.167Z,18.20
2023-05-11T01:31:36.494Z,18.13
2023-05-11T01:36:44.520Z,18.09
2023-05-11T01:41:59.372Z,18.07
2023-05-11T01:47:02.869Z,18.02
2023-05-11T01:52:08.085Z,17.98
2023-05-11T01:57:13.675Z,17.94
2023-05-11T02:02:18.419Z,17.89
2023-05-11T02:07:23.464Z,17.86
2023-05-11T02:12:31.211Z,17.78
2023-05-11T02:17:38.838Z,17.70
2023-05-11T02:22:46.071Z,17.58
2023-05-11T02:27:48.402Z,17.54
2023-05-11T02:32:56.626Z,17.45
2023-05-11T02:38:01.639Z,17.40
2023-05-11T02:43:13.216Z,17.35
2023-05-11T02:48:25.574Z,17.31
2023-05-11T02:53:31.587Z,17.31
2023-05-11T02:58:35.795Z,17.31
2023-05-11T03:03:57.555Z,17.30
2023-05-11T03:09:07.276Z,17.30
2023-05-11T03:14:15.627Z,17.25
2023-05-11T03:19:23.883Z,17.18
2023-05-11T03:24:26.777Z,17.14
2023-05-11T03:29:30.016Z,17.10
2023-05-11T03:34:32.525Z,17.05
2023-05-11T03:39:55.493Z,16.99
2023-05-11T03:44:59.860Z,16.94
2023-05-11T03:50:03.930Z,16.88
2023-05-11T03:55:06.599Z,16.84
2023-05-11T04:32:20.224Z,16.53
2023-05-11T04:37:22.411Z,16.53
2023-05-11T04:42:47.903Z,16.53
2023-05-11T04:47:53.758Z,16.53
2023-05-11T04:52:56.547Z,16.55
2023-05-11T04:57:58.361Z,16.50
2023-05-11T05:03:00.494Z,16.55
2023-05-11T05:08:02.647Z,16.59
2023-05-11T05:13:04.903Z,16.61
2023-05-11T05:18:07.036Z,16.64
2023-05-11T05:23:09.290Z,16.68
2023-05-11T05:28:11.341Z,16.73
2023-05-11T05:33:13.550Z,16.75
2023-05-11T05:38:15.729Z,16.76
2023-05-11T05:43:17.860Z,16.76
2023-05-11T05:48:20.420Z,16.77
2023-05-11T05:53:22.449Z,16.75
2023-05-11T05:58:24.556Z,16.77
2023-05-11T06:03:29.071Z,16.75
2023-05-11T06:08:32.620Z,16.78
2023-05-11T06:13:35.547Z,16.82
2023-05-11T06:18:38.149Z,16.84
2023-05-11T06:23:42.134Z,16.80
2023-05-11T06:28:47.258Z,16.84
2023-05-11T06:33:51.253Z,16.87
2023-05-11T06:39:02.013Z,16.90
2023-05-11T06:44:04.118Z,16.91
2023-05-11T06:49:12.207Z,16.96
2023-05-11T06:54:14.152Z,17.00
2023-05-11T06:59:16.032Z,17.00
2023-05-11T07:04:18.516Z,17.03
2023-05-11T07:09:21.132Z,17.07
2023-05-11T07:14:23.279Z,17.10
2023-05-11T07:19:25.117Z,17.11
2023-05-11T07:24:27.320Z,17.13
2023-05-11T07:29:29.406Z,17.19
2023-05-11T07:34:31.433Z,17.35
2023-05-11T07:39:37.623Z,17.53
2023-05-11T07:44:43.057Z,17.65
2023-05-11T07:49:47.473Z,17.76
2023-05-11T07:54:49.865Z,17.87
2023-05-11T07:59:51.849Z,17.99
2023-05-11T08:04:54.002Z,18.12
2023-05-11T08:09:56.062Z,18.23
2023-05-11T08:14:58.047Z,18.26
2023-05-11T08:20:07.699Z,18.25
2023-05-11T08:25:09.830Z,18.28
2023-05-11T08:30:12.628Z,18.23
2023-05-11T08:35:14.683Z,18.18
2023-05-11T08:40:19.199Z,18.18
2023-05-11T08:45:22.727Z,18.21
2023-05-11T08:50:25.445Z,18.24
2023-05-11T08:55:29.043Z,18.29
2023-05-11T09:00:31.489Z,18.28
2023-05-11T09:05:33.988Z,18.26
2023-05-11T09:10:37.162Z,18.26
2023-05-11T09:15:39.493Z,18.34
2023-05-11T09:20:44.233Z,18.34
2023-05-11T09:25:49.064Z,18.31
2023-05-11T09:30:51.648Z,18.33
2023-05-11T09:35:54.022Z,18.31
2023-05-11T09:40:56.780Z,18.50
2023-05-11T09:46:05.060Z,18.65
2023-05-11T09:51:08.571Z,18.67
2023-05-11T09:56:12.036Z,18.78
2023-05-11T10:01:15.575Z,18.91
2023-05-11T10:06:20.102Z,19.07
2023-05-11T10:11:25.475Z,19.32
2023-05-11T10:16:35.597Z,19.48
2023-05-11T10:21:38.576Z,19.67
2023-05-11T10:26:41.307Z,19.68
2023-05-11T10:31:44.793Z,19.81
2023-05-11T10:37:01.150Z,19.74
2023-05-11T10:42:03.433Z,19.63
2023-05-11T10:47:43.170Z,19.78
2023-05-11T10:53:06.283Z,19.64
2023-05-11T10:58:26.770Z,19.90
2023-05-11T11:03:28.973Z,20.07
2023-05-11T11:09:01.335Z,20.27
2023-05-11T11:14:05.984Z,20.41
2023-05-11T11:19:34.093Z,20.44
2023-05-11T11:24:38.997Z,20.44
2023-05-11T11:30:20.666Z,20.64
2023-05-11T11:35:46.758Z,20.58
2023-05-11T11:40:52.975Z,20.58
2023-05-11T11:46:03.063Z,20.45
2023-05-11T11:51:11.002Z,20.08
2023-05-11T11:56:17.042Z,20.16
2023-05-11T12:01:24.280Z,20.06
2023-05-11T12:06:37.239Z,20.08
2023-05-11T12:11:40.447Z,20.00
2023-05-11T12:16:42.848Z,19.85
2023-05-11T12:25:20.792Z,19.25
2023-05-11T12:30:28.712Z,19.21
2023-05-11T12:35:33.148Z,19.38
2023-05-11T12:40:37.121Z,19.53
2023-05-11T12:45:39.633Z,19.62
2023-05-11T12:50:43.245Z,19.52
2023-05-11T12:55:46.391Z,19.26
2023-05-11T13:01:00.208Z,19.23
2023-05-11T13:06:10.303Z,19.08
2023-05-11T13:11:23.226Z,19.18
2023-05-11T13:16:27.624Z,19.39
2023-05-11T13:21:33.523Z,19.46
2023-05-11T13:36:40.705Z,19.08
2023-05-11T13:41:46.370Z,18.91
2023-05-11T13:46:57.572Z,18.98
2023-05-11T13:52:15.475Z,18.86
2023-05-11T13:57:31.048Z,18.78
2023-05-11T14:02:36.553Z,18.83
2023-05-11T14:07:47.647Z,18.97
2023-05-11T14:13:04.294Z,19.00
2023-05-11T14:18:09.615Z,19.20
2023-05-11T14:23:12.523Z,19.20
2023-05-11T14:28:15.141Z,19.33
2023-05-11T14:33:39.284Z,19.44
2023-05-11T14:39:04.460Z,19.47
2023-05-11T14:44:09.788Z,19.20
2023-05-11T14:49:12.140Z,19.00
2023-05-11T14:54:14.203Z,18.86
2023-05-11T14:59:16.292Z,18.85
2023-05-11T15:04:19.341Z,18.87
2023-05-11T15:09:22.098Z,18.84
2023-05-11T15:14:24.225Z,18.83
2023-05-11T15:19:26.816Z,19.09
2023-05-11T15:24:32.127Z,19.28
2023-05-11T15:29:34.528Z,19.22
2023-05-11T15:34:50.883Z,19.25
2023-05-11T15:40:00.335Z,19.23
2023-05-11T15:45:04.485Z,19.25
2023-05-11T15:50:10.123Z,19.27
2023-05-11T15:55:15.545Z,19.24
2023-05-11T16:00:21.067Z,19.11
2023-05-11T16:05:30.050Z,19.20
2023-05-11T16:10:33.059Z,19.24
2023-05-11T16:15:35.301Z,19.20
2023-05-11T16:20:37.971Z,19.17
2023-05-11T16:25:41.059Z,19.15
2023-05-11T16:30:43.540Z,18.92
2023-05-11T16:35:45.478Z,18.75
2023-05-11T16:40:49.379Z,18.84
2023-05-11T16:45:52.109Z,18.92
2023-05-11T16:50:55.684Z,18.90
2023-05-11T16:55:58.233Z,18.75
2023-05-11T17:01:00.705Z,18.74
2023-05-11T17:06:03.125Z,18.69
2023-05-11T17:11:05.889Z,18.64
2023-05-11T17:16:08.084Z,18.62
2023-05-11T17:21:10.617Z,18.58
2023-05-11T17:26:13.343Z,18.60
2023-05-11T17:31:15.632Z,18.63
2023-05-11T17:36:20.948Z,18.50
2023-05-11T17:41:25.708Z,18.49
2023-05-11T17:46:30.791Z,18.43
2023-05-11T17:51:33.015Z,18.32
2023-05-11T17:56:35.167Z,18.31
2023-05-11T18:01:37.255Z,18.32
2023-05-11T18:06:49.528Z,18.21
2023-05-11T18:11:51.664Z,18.20
2023-05-11T18:16:54.021Z,18.18
2023-05-11T18:22:05.370Z,18.13
2023-05-11T18:27:09.426Z,18.08
2023-05-11T18:32:11.212Z,18.05
2023-05-11T18:37:13.231Z,18.03
2023-05-11T18:42:15.900Z,17.98
2023-05-11T18:47:19.276Z,17.92
2023-05-11T18:52:21.800Z,17.93
2023-05-11T18:57:24.258Z,17.90
2023-05-11T19:02:26.492Z,17.86
2023-05-11T19:07:28.739Z,17.86
2023-05-11T19:12:30.886Z,17.83
2023-05-11T19:17:35.138Z,17.86
2023-05-11T19:22:37.359Z,17.85
2023-05-11T19:27:39.906Z,17.87
2023-05-11T19:32:51.435Z,17.91
2023-05-11T19:37:53.703Z,17.93
2023-05-11T19:43:01.992Z,17.97
2023-05-11T19:48:08.516Z,18.02
2023-05-11T19:53:10.852Z,18.00
2023-05-11T19:58:13.089Z,17.98
2023-05-11T20:03:16.194Z,17.99
2023-05-11T20:08:18.423Z,18.01
2023-05-11T20:13:20.502Z,18.01
2023-05-11T20:18:22.859Z,17.98
2023-05-11T20:23:25.013Z,17.95
2023-05-11T20:28:28.092Z,18.01
2023-05-11T20:38:35.579Z,17.80
2023-05-11T20:43:37.735Z,17.66
2023-05-11T20:48:51.497Z,17.59
2023-05-11T20:54:11.136Z,17.50
2023-05-11T21:04:19.784Z,17.38
2023-05-11T21:09:21.965Z,17.39
2023-05-11T21:14:24.149Z,17.34
2023-05-11T21:19:26.228Z,17.28
2023-05-11T21:24:28.416Z,17.26
2023-05-11T21:29:30.743Z,17.24
2023-05-11T21:34:33.081Z,17.20
2023-05-11T21:39:38.136Z,17.13
2023-05-11T21:44:40.298Z,17.06
2023-05-11T21:49:42.838Z,16.96
2023-05-11T21:54:44.922Z,16.93
2023-05-11T21:59:47.697Z,16.91
2023-05-11T22:04:53.556Z,16.91
2023-05-11T22:09:55.671Z,16.93
2023-05-11T22:15:01.005Z,16.92
2023-05-11T22:20:06.518Z,16.87
2023-05-11T22:25:11.078Z,16.85
2023-05-11T22:30:13.399Z,16.85
2023-05-11T22:35:16.515Z,16.82
2023-05-11T22:40:19.159Z,16.80
2023-05-11T22:45:21.686Z,16.79
2023-05-11T22:50:24.190Z,16.80
2023-05-11T22:55:28.283Z,16.83
2023-05-11T23:00:32.081Z,16.86
2023-05-11T23:05:34.929Z,16.89
2023-05-11T23:10:37.115Z,16.89
2023-05-11T23:15:39.307Z,16.96
2023-05-11T23:20:41.583Z,17.01
2023-05-11T23:25:46.070Z,17.01
2023-05-11T23:30:48.303Z,17.01
2023-05-11T23:36:00.329Z,17.01
2023-05-11T23:41:02.838Z,16.99
2023-05-11T23:46:10.423Z,16.98
2023-05-11T23:51:12.592Z,16.98
2023-05-11T23:56:14.808Z,16.97
